sensor_id;sensor_type;location;lat;lon;timestamp;temperature;humidity
2260;DHT22;333;48.800;9.530;2024-01-16T00:00:00;0.30;99.60
2260;DHT22;333;48.800;9.530;2024-01-16T00:02:27;0.30;99.60
2260;DHT22;333;48.800;9.530;2024-01-16T00:04:54;0.30;99.60
2260;DHT22;333;48.800;9.530;2024-01-16T00:07:23;0.30;99.60
2260;DHT22;333;48.800;9.530;2024-01-16T00:09:50;0.30;99.60
2260;DHT22;333;48.800;9.530;2024-01-16T00:12:18;0.30;99.60
2260;DHT22;333;48.800;9.530;2024-01-16T00:14:45;0.30;99.60
2260;DHT22;333;48.800;9.530;2024-01-16T00:17:12;0.20;99.60
2260;DHT22;333;48.800;9.530;2024-01-16T00:19:40;0.20;99.60
2260;DHT22;333;48.800;9.530;2024-01-16T00:22:07;0.20;99.60
2260;DHT22;333;48.800;9.530;2024-01-16T00:24:36;0.20;99.60
2260;DHT22;333;48.800;9.530;2024-01-16T00:27:03;0.20;99.60
2260;DHT22;333;48.800;9.530;2024-01-16T00:29:31;0.20;99.60
2260;DHT22;333;48.800;9.530;2024-01-16T00:31:57;0.20;99.60
2260;DHT22;333;48.800;9.530;2024-01-16T00:34:25;0.20;99.60
2260;DHT22;333;48.800;9.530;2024-01-16T00:36:52;0.20;99.60
2260;DHT22;333;48.800;9.530;2024-01-16T00:39:19;0.20;99.60
2260;DHT22;333;48.800;9.530;2024-01-16T00:41:47;0.20;99.60
2260;DHT22;333;48.800;9.530;2024-01-16T00:44:14;0.20;99.60
2260;DHT22;333;48.800;9.530;2024-01-16T00:46:41;0.20;99.60
2260;DHT22;333;48.800;9.530;2024-01-16T00:49:08;0.20;99.60
2260;DHT22;333;48.800;9.530;2024-01-16T00:51:35;0.20;99.60
2260;DHT22;333;48.800;9.530;2024-01-16T00:54:03;0.20;99.60
2260;DHT22;333;48.800;9.530;2024-01-16T00:56:32;0.20;99.60
2260;DHT22;333;48.800;9.530;2024-01-16T00:59:01;0.20;99.60
2260;DHT22;333;48.800;9.530;2024-01-16T01:01:28;0.20;99.60
2260;DHT22;333;48.800;9.530;2024-01-16T01:03:55;0.20;99.60
2260;DHT22;333;48.800;9.530;2024-01-16T01:06:22;0.20;99.60
2260;DHT22;333;48.800;9.530;2024-01-16T01:08:50;0.20;99.60
2260;DHT22;333;48.800;9.530;2024-01-16T01:11:17;0.10;99.60
2260;DHT22;333;48.800;9.530;2024-01-16T01:13:44;0.10;99.60
2260;DHT22;333;48.800;9.530;2024-01-16T01:16:12;0.10;99.60
2260;DHT22;333;48.800;9.530;2024-01-16T01:18:39;0.10;99.60
2260;DHT22;333;48.800;9.530;2024-01-16T01:21:06;0.10;99.60
2260;DHT22;333;48.800;9.530;2024-01-16T01:23:33;0.10;99.60
2260;DHT22;333;48.800;9.530;2024-01-16T01:26:00;0.10;99.60
2260;DHT22;333;48.800;9.530;2024-01-16T01:28:29;0.10;99.60
2260;DHT22;333;48.800;9.530;2024-01-16T01:30:56;0.20;99.60
2260;DHT22;333;48.800;9.530;2024-01-16T01:33:25;0.20;99.60
2260;DHT22;333;48.800;9.530;2024-01-16T01:35:52;0.20;99.60
2260;DHT22;333;48.800;9.530;2024-01-16T01:38:19;0.20;99.60
2260;DHT22;333;48.800;9.530;2024-01-16T01:40:46;0.20;99.60
2260;DHT22;333;48.800;9.530;2024-01-16T01:43:20;0.20;99.60
2260;DHT22;333;48.800;9.530;2024-01-16T01:45:58;0.20;99.60
2260;DHT22;333;48.800;9.530;2024-01-16T01:48:33;0.20;99.60
2260;DHT22;333;48.800;9.530;2024-01-16T01:51:00;0.10;99.60
2260;DHT22;333;48.800;9.530;2024-01-16T01:53:30;0.20;99.60
2260;DHT22;333;48.800;9.530;2024-01-16T01:55:58;0.20;99.60
2260;DHT22;333;48.800;9.530;2024-01-16T01:58:25;0.10;99.60
2260;DHT22;333;48.800;9.530;2024-01-16T02:00:52;0.10;99.60
2260;DHT22;333;48.800;9.530;2024-01-16T02:03:20;0.20;99.60
2260;DHT22;333;48.800;9.530;2024-01-16T02:05:49;0.20;99.60
2260;DHT22;333;48.800;9.530;2024-01-16T02:08:16;0.10;99.60
2260;DHT22;333;48.800;9.530;2024-01-16T02:10:45;0.00;99.60
2260;DHT22;333;48.800;9.530;2024-01-16T02:13:14;0.00;99.60
2260;DHT22;333;48.800;9.530;2024-01-16T02:15:44;0.10;99.60
2260;DHT22;333;48.800;9.530;2024-01-16T02:18:11;0.10;99.60
2260;DHT22;333;48.800;9.530;2024-01-16T02:20:38;0.10;99.60
2260;DHT22;333;48.800;9.530;2024-01-16T02:23:07;0.10;99.60
2260;DHT22;333;48.800;9.530;2024-01-16T02:25:37;0.20;99.60
2260;DHT22;333;48.800;9.530;2024-01-16T02:28:04;0.20;99.60
2260;DHT22;333;48.800;9.530;2024-01-16T02:30:31;0.20;99.60
2260;DHT22;333;48.800;9.530;2024-01-16T02:32:58;0.20;99.60
2260;DHT22;333;48.800;9.530;2024-01-16T02:35:25;0.20;99.60
2260;DHT22;333;48.800;9.530;2024-01-16T02:37:52;0.20;99.60
2260;DHT22;333;48.800;9.530;2024-01-16T02:40:19;0.20;99.60
2260;DHT22;333;48.800;9.530;2024-01-16T02:42:47;0.20;99.60
2260;DHT22;333;48.800;9.530;2024-01-16T02:45:14;0.20;99.60
2260;DHT22;333;48.800;9.530;2024-01-16T02:47:42;0.20;99.60
2260;DHT22;333;48.800;9.530;2024-01-16T02:50:09;0.10;99.60
2260;DHT22;333;48.800;9.530;2024-01-16T02:52:36;0.20;99.60
2260;DHT22;333;48.800;9.530;2024-01-16T02:55:04;0.10;99.60
2260;DHT22;333;48.800;9.530;2024-01-16T02:57:32;0.20;99.60
2260;DHT22;333;48.800;9.530;2024-01-16T03:00:01;0.10;99.60
2260;DHT22;333;48.800;9.530;2024-01-16T03:02:28;0.10;99.60
2260;DHT22;333;48.800;9.530;2024-01-16T03:04:55;0.10;99.60
2260;DHT22;333;48.800;9.530;2024-01-16T03:07:22;0.10;99.60
2260;DHT22;333;48.800;9.530;2024-01-16T03:09:50;0.00;99.60
2260;DHT22;333;48.800;9.530;2024-01-16T03:12:17;0.00;99.60
2260;DHT22;333;48.800;9.530;2024-01-16T03:14:44;-0.10;99.60
2260;DHT22;333;48.800;9.530;2024-01-16T03:17:12;-0.20;99.60
2260;DHT22;333;48.800;9.530;2024-01-16T03:19:39;-0.20;99.60
2260;DHT22;333;48.800;9.530;2024-01-16T03:22:07;-0.30;99.60
2260;DHT22;333;48.800;9.530;2024-01-16T03:24:34;-0.30;99.60
2260;DHT22;333;48.800;9.530;2024-01-16T03:27:01;-0.30;99.60
2260;DHT22;333;48.800;9.530;2024-01-16T03:29:29;-0.20;99.60
2260;DHT22;333;48.800;9.530;2024-01-16T03:31:57;-0.30;99.60
2260;DHT22;333;48.800;9.530;2024-01-16T03:34:26;-0.30;99.60
2260;DHT22;333;48.800;9.530;2024-01-16T03:36:54;-0.40;99.60
2260;DHT22;333;48.800;9.530;2024-01-16T03:39:21;-0.50;99.60
2260;DHT22;333;48.800;9.530;2024-01-16T03:41:48;-0.60;99.60
2260;DHT22;333;48.800;9.530;2024-01-16T03:44:15;-0.60;99.60
2260;DHT22;333;48.800;9.530;2024-01-16T03:46:42;-0.60;99.60
2260;DHT22;333;48.800;9.530;2024-01-16T03:49:09;-0.70;99.60
2260;DHT22;333;48.800;9.530;2024-01-16T03:51:38;-0.80;99.60
2260;DHT22;333;48.800;9.530;2024-01-16T03:54:08;-0.90;99.60
2260;DHT22;333;48.800;9.530;2024-01-16T03:56:35;-1.00;99.60
2260;DHT22;333;48.800;9.530;2024-01-16T03:59:02;-1.10;99.60
2260;DHT22;333;48.800;9.530;2024-01-16T04:01:32;-1.10;99.60
2260;DHT22;333;48.800;9.530;2024-01-16T04:03:59;-1.00;99.60
2260;DHT22;333;48.800;9.530;2024-01-16T04:06:27;-1.00;99.60
2260;DHT22;333;48.800;9.530;2024-01-16T04:08:56;-1.10;99.60
2260;DHT22;333;48.800;9.530;2024-01-16T04:11:23;-1.10;99.60
2260;DHT22;333;48.800;9.530;2024-01-16T04:13:51;-1.00;99.60
2260;DHT22;333;48.800;9.530;2024-01-16T04:16:18;-1.10;99.60
2260;DHT22;333;48.800;9.530;2024-01-16T04:18:45;-1.10;99.60
2260;DHT22;333;48.800;9.530;2024-01-16T04:21:12;-1.00;99.60
2260;DHT22;333;48.800;9.530;2024-01-16T04:23:40;-1.10;99.60
2260;DHT22;333;48.800;9.530;2024-01-16T04:26:09;-1.10;99.60
2260;DHT22;333;48.800;9.530;2024-01-16T04:28:36;-1.10;99.60
2260;DHT22;333;48.800;9.530;2024-01-16T04:31:04;-1.10;99.60
2260;DHT22;333;48.800;9.530;2024-01-16T04:33:31;-1.20;99.60
2260;DHT22;333;48.800;9.530;2024-01-16T04:35:58;-1.30;99.60
2260;DHT22;333;48.800;9.530;2024-01-16T04:38:25;-1.30;99.60
2260;DHT22;333;48.800;9.530;2024-01-16T04:40:52;-1.40;99.60
2260;DHT22;333;48.800;9.530;2024-01-16T04:43:20;-1.50;99.60
2260;DHT22;333;48.800;9.530;2024-01-16T04:45:47;-1.70;99.60
2260;DHT22;333;48.800;9.530;2024-01-16T04:48:14;-1.80;99.60
2260;DHT22;333;48.800;9.530;2024-01-16T04:50:42;-1.90;99.60
2260;DHT22;333;48.800;9.530;2024-01-16T04:53:11;-1.90;99.60
2260;DHT22;333;48.800;9.530;2024-01-16T04:55:38;-2.00;99.60
2260;DHT22;333;48.800;9.530;2024-01-16T04:58:05;-2.10;99.60
2260;DHT22;333;48.800;9.530;2024-01-16T05:00:34;-2.10;99.60
2260;DHT22;333;48.800;9.530;2024-01-16T05:03:03;-2.20;99.60
2260;DHT22;333;48.800;9.530;2024-01-16T05:05:31;-2.30;99.60
2260;DHT22;333;48.800;9.530;2024-01-16T05:08:00;-2.40;99.60
2260;DHT22;333;48.800;9.530;2024-01-16T05:10:27;-2.60;99.60
2260;DHT22;333;48.800;9.530;2024-01-16T05:12:54;-2.40;99.60
2260;DHT22;333;48.800;9.530;2024-01-16T05:15:21;-2.60;99.60
2260;DHT22;333;48.800;9.530;2024-01-16T05:17:50;-2.70;99.60
2260;DHT22;333;48.800;9.530;2024-01-16T05:20:17;-2.90;99.60
2260;DHT22;333;48.800;9.530;2024-01-16T05:22:44;-3.00;99.60
2260;DHT22;333;48.800;9.530;2024-01-16T05:25:11;-3.00;99.60
2260;DHT22;333;48.800;9.530;2024-01-16T05:27:38;-3.00;99.60
2260;DHT22;333;48.800;9.530;2024-01-16T05:30:05;-3.00;99.60
2260;DHT22;333;48.800;9.530;2024-01-16T05:32:33;-2.90;99.60
2260;DHT22;333;48.800;9.530;2024-01-16T05:35:02;-2.90;99.60
2260;DHT22;333;48.800;9.530;2024-01-16T05:37:29;-2.90;99.60
2260;DHT22;333;48.800;9.530;2024-01-16T05:39:56;-3.10;99.60
2260;DHT22;333;48.800;9.530;2024-01-16T05:42:23;-3.20;99.60
2260;DHT22;333;48.800;9.530;2024-01-16T05:44:51;-3.30;99.60
2260;DHT22;333;48.800;9.530;2024-01-16T05:47:19;-3.30;99.60
2260;DHT22;333;48.800;9.530;2024-01-16T05:49:46;-3.30;99.60
2260;DHT22;333;48.800;9.530;2024-01-16T05:52:14;-3.20;99.60
2260;DHT22;333;48.800;9.530;2024-01-16T05:54:41;-3.30;99.60
2260;DHT22;333;48.800;9.530;2024-01-16T05:57:08;-3.40;99.60
2260;DHT22;333;48.800;9.530;2024-01-16T05:59:36;-3.40;99.60
2260;DHT22;333;48.800;9.530;2024-01-16T06:02:03;-3.50;99.60
2260;DHT22;333;48.800;9.530;2024-01-16T06:04:30;-3.50;99.60
2260;DHT22;333;48.800;9.530;2024-01-16T06:06:57;-3.50;99.60
2260;DHT22;333;48.800;9.530;2024-01-16T06:09:25;-3.60;99.60
2260;DHT22;333;48.800;9.530;2024-01-16T06:11:52;-3.50;99.60
2260;DHT22;333;48.800;9.530;2024-01-16T06:14:19;-3.60;99.60
2260;DHT22;333;48.800;9.530;2024-01-16T06:16:47;-3.60;99.60
2260;DHT22;333;48.800;9.530;2024-01-16T06:19:15;-3.60;99.60
2260;DHT22;333;48.800;9.530;2024-01-16T06:21:42;-3.50;99.60
2260;DHT22;333;48.800;9.530;2024-01-16T06:24:09;-3.50;99.60
2260;DHT22;333;48.800;9.530;2024-01-16T06:26:38;-3.20;99.60
2260;DHT22;333;48.800;9.530;2024-01-16T06:29:06;-3.20;99.60
2260;DHT22;333;48.800;9.530;2024-01-16T06:31:33;-3.20;99.60
2260;DHT22;333;48.800;9.530;2024-01-16T06:34:00;-3.00;99.60
2260;DHT22;333;48.800;9.530;2024-01-16T06:36:27;-2.80;99.60
2260;DHT22;333;48.800;9.530;2024-01-16T06:38:54;-3.00;99.60
2260;DHT22;333;48.800;9.530;2024-01-16T06:41:21;-3.10;99.60
2260;DHT22;333;48.800;9.530;2024-01-16T06:43:50;-3.10;99.60
2260;DHT22;333;48.800;9.530;2024-01-16T06:46:17;-3.10;99.60
2260;DHT22;333;48.800;9.530;2024-01-16T06:48:44;-3.20;99.60
2260;DHT22;333;48.800;9.530;2024-01-16T06:51:11;-3.10;99.60
2260;DHT22;333;48.800;9.530;2024-01-16T06:53:39;-3.00;99.60
2260;DHT22;333;48.800;9.530;2024-01-16T06:56:06;-3.10;99.60
2260;DHT22;333;48.800;9.530;2024-01-16T06:58:34;-3.10;99.60
2260;DHT22;333;48.800;9.530;2024-01-16T07:01:03;-3.10;99.60
2260;DHT22;333;48.800;9.530;2024-01-16T07:03:31;-3.10;99.60
2260;DHT22;333;48.800;9.530;2024-01-16T07:05:58;-3.20;99.60
2260;DHT22;333;48.800;9.530;2024-01-16T07:08:26;-3.10;99.60
2260;DHT22;333;48.800;9.530;2024-01-16T07:10:53;-3.10;99.60
2260;DHT22;333;48.800;9.530;2024-01-16T07:13:20;-3.10;99.60
2260;DHT22;333;48.800;9.530;2024-01-16T07:15:47;-3.00;99.60
2260;DHT22;333;48.800;9.530;2024-01-16T07:18:15;-3.10;99.60
2260;DHT22;333;48.800;9.530;2024-01-16T07:20:43;-3.10;99.60
2260;DHT22;333;48.800;9.530;2024-01-16T07:23:11;-3.10;99.60
2260;DHT22;333;48.800;9.530;2024-01-16T07:25:38;-3.00;99.60
2260;DHT22;333;48.800;9.530;2024-01-16T07:28:06;-3.00;99.60
2260;DHT22;333;48.800;9.530;2024-01-16T07:30:34;-3.10;99.60
2260;DHT22;333;48.800;9.530;2024-01-16T07:33:03;-3.10;99.60
2260;DHT22;333;48.800;9.530;2024-01-16T07:35:31;-2.90;99.60
2260;DHT22;333;48.800;9.530;2024-01-16T07:37:59;-3.00;99.60
2260;DHT22;333;48.800;9.530;2024-01-16T07:40:26;-3.10;99.60
2260;DHT22;333;48.800;9.530;2024-01-16T07:42:53;-3.10;99.60
2260;DHT22;333;48.800;9.530;2024-01-16T07:45:19;-3.10;99.60
2260;DHT22;333;48.800;9.530;2024-01-16T07:47:47;-3.10;99.60
2260;DHT22;333;48.800;9.530;2024-01-16T07:50:14;-3.10;99.60
2260;DHT22;333;48.800;9.530;2024-01-16T07:52:43;-2.80;99.60
2260;DHT22;333;48.800;9.530;2024-01-16T07:55:11;-2.90;99.60
2260;DHT22;333;48.800;9.530;2024-01-16T07:57:38;-2.80;99.60
2260;DHT22;333;48.800;9.530;2024-01-16T08:00:06;-2.60;99.60
2260;DHT22;333;48.800;9.530;2024-01-16T08:02:38;-2.30;99.60
2260;DHT22;333;48.800;9.530;2024-01-16T08:05:05;-2.30;99.60
2260;DHT22;333;48.800;9.530;2024-01-16T08:07:32;-2.30;99.60
2260;DHT22;333;48.800;9.530;2024-01-16T08:10:01;-2.40;99.60
2260;DHT22;333;48.800;9.530;2024-01-16T08:12:28;-2.40;99.60
2260;DHT22;333;48.800;9.530;2024-01-16T08:14:55;-2.30;99.60
2260;DHT22;333;48.800;9.530;2024-01-16T08:17:22;-2.30;99.60
2260;DHT22;333;48.800;9.530;2024-01-16T08:19:49;-2.30;99.60
2260;DHT22;333;48.800;9.530;2024-01-16T08:22:16;-2.30;99.60
2260;DHT22;333;48.800;9.530;2024-01-16T08:24:43;-2.10;99.60
2260;DHT22;333;48.800;9.530;2024-01-16T08:27:12;-2.10;99.60
2260;DHT22;333;48.800;9.530;2024-01-16T08:29:39;-1.90;99.60
2260;DHT22;333;48.800;9.530;2024-01-16T08:32:06;-1.80;99.60
2260;DHT22;333;48.800;9.530;2024-01-16T08:34:33;-1.70;99.60
2260;DHT22;333;48.800;9.530;2024-01-16T08:37:00;-1.50;99.60
2260;DHT22;333;48.800;9.530;2024-01-16T08:39:27;-1.50;99.60
2260;DHT22;333;48.800;9.530;2024-01-16T08:41:58;-1.50;99.60
2260;DHT22;333;48.800;9.530;2024-01-16T08:44:29;-1.50;99.60
2260;DHT22;333;48.800;9.530;2024-01-16T08:46:56;-1.30;99.60
2260;DHT22;333;48.800;9.530;2024-01-16T08:49:25;-1.20;99.60
2260;DHT22;333;48.800;9.530;2024-01-16T08:51:52;-1.20;99.60
2260;DHT22;333;48.800;9.530;2024-01-16T08:54:19;-1.10;99.60
2260;DHT22;333;48.800;9.530;2024-01-16T08:56:48;-1.00;99.60
2260;DHT22;333;48.800;9.530;2024-01-16T08:59:15;-0.90;99.60
2260;DHT22;333;48.800;9.530;2024-01-16T09:01:44;-1.00;99.60
2260;DHT22;333;48.800;9.530;2024-01-16T09:04:11;-1.00;99.60
2260;DHT22;333;48.800;9.530;2024-01-16T09:06:38;-0.90;99.60
2260;DHT22;333;48.800;9.530;2024-01-16T09:09:05;-0.70;99.60
2260;DHT22;333;48.800;9.530;2024-01-16T09:11:32;-0.80;99.60
2260;DHT22;333;48.800;9.530;2024-01-16T09:13:59;-0.70;99.60
2260;DHT22;333;48.800;9.530;2024-01-16T09:16:26;-0.70;99.60
2260;DHT22;333;48.800;9.530;2024-01-16T09:18:55;-0.40;99.60
2260;DHT22;333;48.800;9.530;2024-01-16T09:21:22;-0.20;99.60
2260;DHT22;333;48.800;9.530;2024-01-16T09:23:49;-0.10;99.60
2260;DHT22;333;48.800;9.530;2024-01-16T09:26:16;-0.30;99.60
2260;DHT22;333;48.800;9.530;2024-01-16T09:28:43;-0.30;99.60
2260;DHT22;333;48.800;9.530;2024-01-16T09:31:10;-0.20;99.60
2260;DHT22;333;48.800;9.530;2024-01-16T09:33:37;-0.10;99.60
2260;DHT22;333;48.800;9.530;2024-01-16T09:36:06;0.00;99.60
2260;DHT22;333;48.800;9.530;2024-01-16T09:38:33;0.20;99.60
2260;DHT22;333;48.800;9.530;2024-01-16T09:41:00;0.20;99.60
2260;DHT22;333;48.800;9.530;2024-01-16T09:43:29;0.20;99.60
2260;DHT22;333;48.800;9.530;2024-01-16T09:46:00;0.40;99.60
2260;DHT22;333;48.800;9.530;2024-01-16T09:48:28;0.50;99.60
2260;DHT22;333;48.800;9.530;2024-01-16T09:50:57;0.60;99.60
2260;DHT22;333;48.800;9.530;2024-01-16T09:53:26;0.90;99.60
2260;DHT22;333;48.800;9.530;2024-01-16T09:55:55;0.80;99.60
2260;DHT22;333;48.800;9.530;2024-01-16T09:58:25;0.80;99.60
2260;DHT22;333;48.800;9.530;2024-01-16T10:00:54;0.80;99.60
2260;DHT22;333;48.800;9.530;2024-01-16T10:03:22;0.40;99.60
2260;DHT22;333;48.800;9.530;2024-01-16T10:05:49;0.50;99.60
2260;DHT22;333;48.800;9.530;2024-01-16T10:08:17;0.80;99.60
2260;DHT22;333;48.800;9.530;2024-01-16T10:10:48;0.90;99.60
2260;DHT22;333;48.800;9.530;2024-01-16T10:13:16;0.90;99.60
2260;DHT22;333;48.800;9.530;2024-01-16T10:15:44;0.70;99.60
2260;DHT22;333;48.800;9.530;2024-01-16T10:18:22;1.00;99.60
2260;DHT22;333;48.800;9.530;2024-01-16T10:20:50;1.30;99.60
2260;DHT22;333;48.800;9.530;2024-01-16T10:23:22;1.40;99.60
2260;DHT22;333;48.800;9.530;2024-01-16T10:28:44;1.90;99.60
2260;DHT22;333;48.800;9.530;2024-01-16T10:31:13;2.30;99.60
2260;DHT22;333;48.800;9.530;2024-01-16T10:33:41;2.20;99.60
2260;DHT22;333;48.800;9.530;2024-01-16T10:36:09;2.00;99.60
2260;DHT22;333;48.800;9.530;2024-01-16T10:38:37;2.10;99.60
2260;DHT22;333;48.800;9.530;2024-01-16T10:41:06;1.90;99.60
2260;DHT22;333;48.800;9.530;2024-01-16T10:43:33;1.40;99.60
2260;DHT22;333;48.800;9.530;2024-01-16T10:46:08;1.00;99.60
2260;DHT22;333;48.800;9.530;2024-01-16T10:48:38;1.00;99.60
2260;DHT22;333;48.800;9.530;2024-01-16T10:51:06;1.00;99.60
2260;DHT22;333;48.800;9.530;2024-01-16T10:53:34;1.00;99.60
2260;DHT22;333;48.800;9.530;2024-01-16T10:56:02;1.10;99.60
2260;DHT22;333;48.800;9.530;2024-01-16T10:58:32;1.50;99.60
2260;DHT22;333;48.800;9.530;2024-01-16T11:01:02;2.00;99.60
2260;DHT22;333;48.800;9.530;2024-01-16T11:03:38;2.00;99.60
2260;DHT22;333;48.800;9.530;2024-01-16T11:06:06;1.70;99.60
2260;DHT22;333;48.800;9.530;2024-01-16T11:08:36;1.70;99.60
2260;DHT22;333;48.800;9.530;2024-01-16T11:11:04;2.00;99.60
2260;DHT22;333;48.800;9.530;2024-01-16T11:13:33;2.10;99.60
2260;DHT22;333;48.800;9.530;2024-01-16T11:16:02;2.00;99.60
2260;DHT22;333;48.800;9.530;2024-01-16T11:18:32;2.30;99.60
2260;DHT22;333;48.800;9.530;2024-01-16T11:21:04;3.20;99.60
2260;DHT22;333;48.800;9.530;2024-01-16T11:23:31;3.80;99.60
2260;DHT22;333;48.800;9.530;2024-01-16T11:26:00;4.50;99.60
2260;DHT22;333;48.800;9.530;2024-01-16T11:28:43;4.60;99.60
2260;DHT22;333;48.800;9.530;2024-01-16T11:31:28;5.00;99.60
2260;DHT22;333;48.800;9.530;2024-01-16T11:33:56;5.40;99.60
2260;DHT22;333;48.800;9.530;2024-01-16T11:36:52;5.50;98.60
2260;DHT22;333;48.800;9.530;2024-01-16T11:39:20;4.80;99.10
2260;DHT22;333;48.800;9.530;2024-01-16T11:41:52;4.50;99.60
2260;DHT22;333;48.800;9.530;2024-01-16T11:44:41;3.90;99.60
2260;DHT22;333;48.800;9.530;2024-01-16T11:47:10;3.20;99.60
2260;DHT22;333;48.800;9.530;2024-01-16T11:49:41;3.10;99.60
2260;DHT22;333;48.800;9.530;2024-01-16T11:52:10;3.80;99.60
2260;DHT22;333;48.800;9.530;2024-01-16T11:54:39;3.40;99.60
2260;DHT22;333;48.800;9.530;2024-01-16T11:57:36;3.20;99.60
2260;DHT22;333;48.800;9.530;2024-01-16T12:00:19;3.20;99.60
2260;DHT22;333;48.800;9.530;2024-01-16T12:02:51;3.60;99.60
2260;DHT22;333;48.800;9.530;2024-01-16T12:05:18;3.90;99.60
2260;DHT22;333;48.800;9.530;2024-01-16T12:07:47;3.50;99.60
2260;DHT22;333;48.800;9.530;2024-01-16T12:10:19;3.20;99.60
2260;DHT22;333;48.800;9.530;2024-01-16T12:12:47;3.20;99.60
2260;DHT22;333;48.800;9.530;2024-01-16T12:15:16;3.80;99.60
2260;DHT22;333;48.800;9.530;2024-01-16T12:17:55;4.50;99.60
2260;DHT22;333;48.800;9.530;2024-01-16T12:20:23;4.70;99.60
2260;DHT22;333;48.800;9.530;2024-01-16T12:22:56;5.60;96.60
2260;DHT22;333;48.800;9.530;2024-01-16T12:25:23;5.60;96.00
2260;DHT22;333;48.800;9.530;2024-01-16T12:27:57;4.50;97.90
2260;DHT22;333;48.800;9.530;2024-01-16T12:30:29;4.50;98.90
2260;DHT22;333;48.800;9.530;2024-01-16T12:33:04;4.50;98.30
2260;DHT22;333;48.800;9.530;2024-01-16T12:35:33;4.70;98.80
2260;DHT22;333;48.800;9.530;2024-01-16T12:38:03;4.80;99.40
2260;DHT22;333;48.800;9.530;2024-01-16T12:40:32;4.30;99.60
2260;DHT22;333;48.800;9.530;2024-01-16T12:42:59;4.20;99.60
2260;DHT22;333;48.800;9.530;2024-01-16T12:45:26;3.90;99.60
2260;DHT22;333;48.800;9.530;2024-01-16T12:47:54;3.90;99.60
2260;DHT22;333;48.800;9.530;2024-01-16T12:50:25;3.90;99.60
2260;DHT22;333;48.800;9.530;2024-01-16T12:53:03;4.00;98.70
2260;DHT22;333;48.800;9.530;2024-01-16T12:55:30;3.90;98.90
2260;DHT22;333;48.800;9.530;2024-01-16T12:58:13;3.90;95.90
2260;DHT22;333;48.800;9.530;2024-01-16T13:00:41;3.70;96.60
2260;DHT22;333;48.800;9.530;2024-01-16T13:03:08;3.70;96.80
2260;DHT22;333;48.800;9.530;2024-01-16T13:05:42;3.80;96.70
2260;DHT22;333;48.800;9.530;2024-01-16T13:08:17;3.80;96.30
2260;DHT22;333;48.800;9.530;2024-01-16T13:10:46;3.90;95.90
2260;DHT22;333;48.800;9.530;2024-01-16T13:13:15;4.20;94.70
2260;DHT22;333;48.800;9.530;2024-01-16T13:15:43;4.30;94.10
2260;DHT22;333;48.800;9.530;2024-01-16T13:18:20;4.40;95.50
2260;DHT22;333;48.800;9.530;2024-01-16T13:20:48;4.40;94.40
2260;DHT22;333;48.800;9.530;2024-01-16T13:23:18;4.40;95.00
2260;DHT22;333;48.800;9.530;2024-01-16T13:25:46;4.40;94.10
2260;DHT22;333;48.800;9.530;2024-01-16T13:28:14;4.20;94.40
2260;DHT22;333;48.800;9.530;2024-01-16T13:30:42;4.10;94.20
2260;DHT22;333;48.800;9.530;2024-01-16T13:33:09;4.00;94.70
2260;DHT22;333;48.800;9.530;2024-01-16T13:35:39;3.90;94.50
2260;DHT22;333;48.800;9.530;2024-01-16T13:38:06;3.80;93.50
2260;DHT22;333;48.800;9.530;2024-01-16T13:40:36;4.00;94.40
2260;DHT22;333;48.800;9.530;2024-01-16T13:43:03;4.00;93.70
2260;DHT22;333;48.800;9.530;2024-01-16T13:45:32;3.80;93.80
2260;DHT22;333;48.800;9.530;2024-01-16T13:48:00;4.00;94.60
2260;DHT22;333;48.800;9.530;2024-01-16T13:50:28;4.20;93.20
2260;DHT22;333;48.800;9.530;2024-01-16T13:52:56;4.70;94.50
2260;DHT22;333;48.800;9.530;2024-01-16T13:55:24;5.90;93.40
2260;DHT22;333;48.800;9.530;2024-01-16T13:57:53;6.70;88.70
2260;DHT22;333;48.800;9.530;2024-01-16T14:00:22;7.10;86.20
2260;DHT22;333;48.800;9.530;2024-01-16T14:02:49;7.20;84.80
2260;DHT22;333;48.800;9.530;2024-01-16T14:05:17;6.50;85.70
2260;DHT22;333;48.800;9.530;2024-01-16T14:07:45;6.70;86.10
2260;DHT22;333;48.800;9.530;2024-01-16T14:10:15;6.20;86.70
2260;DHT22;333;48.800;9.530;2024-01-16T14:12:42;5.50;88.80
2260;DHT22;333;48.800;9.530;2024-01-16T14:15:13;4.70;89.80
2260;DHT22;333;48.800;9.530;2024-01-16T14:17:46;4.70;90.40
2260;DHT22;333;48.800;9.530;2024-01-16T14:20:17;4.50;91.30
2260;DHT22;333;48.800;9.530;2024-01-16T14:22:48;4.00;92.00
2260;DHT22;333;48.800;9.530;2024-01-16T14:25:15;4.10;92.20
2260;DHT22;333;48.800;9.530;2024-01-16T14:27:45;4.40;91.20
2260;DHT22;333;48.800;9.530;2024-01-16T14:30:15;4.40;90.60
2260;DHT22;333;48.800;9.530;2024-01-16T14:32:42;4.00;91.20
2260;DHT22;333;48.800;9.530;2024-01-16T14:35:11;3.60;92.50
2260;DHT22;333;48.800;9.530;2024-01-16T14:37:39;3.50;93.40
2260;DHT22;333;48.800;9.530;2024-01-16T14:40:07;3.30;94.70
2260;DHT22;333;48.800;9.530;2024-01-16T14:42:38;3.10;94.30
2260;DHT22;333;48.800;9.530;2024-01-16T14:45:06;3.00;94.70
2260;DHT22;333;48.800;9.530;2024-01-16T14:47:35;2.60;95.40
2260;DHT22;333;48.800;9.530;2024-01-16T14:50:02;2.40;97.10
2260;DHT22;333;48.800;9.530;2024-01-16T14:52:29;2.20;98.30
2260;DHT22;333;48.800;9.530;2024-01-16T14:55:01;2.00;97.70
2260;DHT22;333;48.800;9.530;2024-01-16T14:57:31;2.00;98.70
2260;DHT22;333;48.800;9.530;2024-01-16T15:00:04;1.90;99.10
2260;DHT22;333;48.800;9.530;2024-01-16T15:02:41;1.80;99.00
2260;DHT22;333;48.800;9.530;2024-01-16T15:05:08;1.70;99.60
2260;DHT22;333;48.800;9.530;2024-01-16T15:07:35;1.60;99.60
2260;DHT22;333;48.800;9.530;2024-01-16T15:10:04;1.60;99.60
2260;DHT22;333;48.800;9.530;2024-01-16T15:12:34;1.50;99.60
2260;DHT22;333;48.800;9.530;2024-01-16T15:15:01;1.40;99.60
2260;DHT22;333;48.800;9.530;2024-01-16T15:17:29;1.30;99.60
2260;DHT22;333;48.800;9.530;2024-01-16T15:19:57;1.20;99.60
2260;DHT22;333;48.800;9.530;2024-01-16T15:22:24;1.10;99.60
2260;DHT22;333;48.800;9.530;2024-01-16T15:24:51;1.00;99.60
2260;DHT22;333;48.800;9.530;2024-01-16T15:27:18;0.80;99.60
2260;DHT22;333;48.800;9.530;2024-01-16T15:29:46;0.60;99.60
2260;DHT22;333;48.800;9.530;2024-01-16T15:32:13;0.40;99.60
2260;DHT22;333;48.800;9.530;2024-01-16T15:34:40;0.30;99.60
2260;DHT22;333;48.800;9.530;2024-01-16T15:37:09;0.20;99.60
2260;DHT22;333;48.800;9.530;2024-01-16T15:39:36;0.10;99.60
2260;DHT22;333;48.800;9.530;2024-01-16T15:42:03;0.00;99.60
2260;DHT22;333;48.800;9.530;2024-01-16T15:44:31;-0.20;99.60
2260;DHT22;333;48.800;9.530;2024-01-16T15:46:58;-0.30;99.60
2260;DHT22;333;48.800;9.530;2024-01-16T15:49:26;-0.30;99.60
2260;DHT22;333;48.800;9.530;2024-01-16T15:51:54;-0.40;99.60
2260;DHT22;333;48.800;9.530;2024-01-16T15:54:24;-0.50;99.60
2260;DHT22;333;48.800;9.530;2024-01-16T15:56:52;-0.60;99.60
2260;DHT22;333;48.800;9.530;2024-01-16T15:59:19;-0.80;99.60
2260;DHT22;333;48.800;9.530;2024-01-16T16:01:47;-0.80;99.60
2260;DHT22;333;48.800;9.530;2024-01-16T16:04:13;-1.00;99.60
2260;DHT22;333;48.800;9.530;2024-01-16T16:06:43;-1.10;99.60
2260;DHT22;333;48.800;9.530;2024-01-16T16:09:10;-1.20;99.60
2260;DHT22;333;48.800;9.530;2024-01-16T16:11:40;-1.20;99.60
2260;DHT22;333;48.800;9.530;2024-01-16T16:14:08;-1.10;99.60
2260;DHT22;333;48.800;9.530;2024-01-16T16:16:35;-1.10;99.60
2260;DHT22;333;48.800;9.530;2024-01-16T16:19:03;-1.10;99.60
2260;DHT22;333;48.800;9.530;2024-01-16T16:21:30;-1.20;99.60
2260;DHT22;333;48.800;9.530;2024-01-16T16:23:57;-1.10;99.60
2260;DHT22;333;48.800;9.530;2024-01-16T16:26:32;-1.20;99.60
2260;DHT22;333;48.800;9.530;2024-01-16T16:29:02;-1.40;99.60
2260;DHT22;333;48.800;9.530;2024-01-16T16:31:29;-1.40;99.60
2260;DHT22;333;48.800;9.530;2024-01-16T16:33:57;-1.40;99.60
2260;DHT22;333;48.800;9.530;2024-01-16T16:36:25;-1.60;99.60